Time;durP1;ratioP1;P1;durP2;ratioP2;P2;SDS_P1;SDS_P2;PMS_P1;PMS_P2;Temp;Humidity;BMP_temperature;BMP_pressure;BME280_temperature;BME280_humidity;BME280_pressure;Samples;Min_cycle;Max_cycle;Signal;HPM_P1;HPM_P2
2022/08/24 00:00:17;;;;;;;4.13;1.58;;;;;;;;;;2065781;28;20031;-81
2022/08/24 00:01:36;;;;;;;1.25;1.00;;;;;;;;;;2059045;28;20026;-81
2022/08/24 00:02:55;;;;;;;2.92;1.00;;;;;;;;;;2064423;28;20030;-81
2022/08/24 00:04:14;;;;;;;3.20;1.20;;;;;;;;;;2067709;28;20395;-81
2022/08/24 00:05:33;;;;;;;3.08;1.10;;;;;;;;;;2067674;28;20042;-81
2022/08/24 00:06:52;;;;;;;4.28;1.30;;;;;;;;;;2068954;28;20021;-81
2022/08/24 00:08:10;;;;;;;1.92;1.23;;;;;;;;;;2059212;28;20117;-81
2022/08/24 00:09:31;;;;;;;1.92;1.15;;;;;;;;;;2056536;28;20026;-81
2022/08/24 00:10:50;;;;;;;1.48;0.90;;;;;;;;;;2058099;28;20113;-81
2022/08/24 00:12:09;;;;;;;3.38;1.20;;;;;;;;;;2066643;28;20029;-81
2022/08/24 00:13:28;;;;;;;3.38;1.42;;;;;;;;;;2063788;28;20109;-82
2022/08/24 00:14:49;;;;;;;3.55;1.30;;;;;;;;;;2058256;28;20042;-80
2022/08/24 00:16:09;;;;;;;1.70;1.10;;;;;;;;;;2064742;28;20066;-82
2022/08/24 00:17:28;;;;;;;2.47;1.20;;;;;;;;;;2061838;28;20023;-81
2022/08/24 00:18:48;;;;;;;1.70;1.60;;;;;;;;;;2056228;28;20035;-81
2022/08/24 00:20:09;;;;;;;2.00;1.20;;;;;;;;;;2058128;28;20031;-81
2022/08/24 00:21:28;;;;;;;1.30;1.13;;;;;;;;;;2059066;28;20504;-80
2022/08/24 00:22:46;;;;;;;1.65;1.33;;;;;;;;;;2065068;28;20030;-81
2022/08/24 00:24:05;;;;;;;1.75;1.40;;;;;;;;;;2065833;28;20109;-80
2022/08/24 00:25:25;;;;;;;2.38;1.20;;;;;;;;;;2060476;28;20041;-80
2022/08/24 00:26:45;;;;;;;1.58;1.08;;;;;;;;;;2065415;28;20026;-80
2022/08/24 00:28:04;;;;;;;2.65;1.10;;;;;;;;;;2067823;28;20030;-81
2022/08/24 00:29:23;;;;;;;2.63;1.20;;;;;;;;;;2059907;28;20030;-82
2022/08/24 00:30:43;;;;;;;2.25;1.15;;;;;;;;;;2056480;28;20050;-84
2022/08/24 00:32:02;;;;;;;1.55;1.20;;;;;;;;;;2057918;28;20031;-82
2022/08/24 00:33:22;;;;;;;1.15;1.02;;;;;;;;;;2066755;28;20026;-81
2022/08/24 00:34:41;;;;;;;1.30;1.20;;;;;;;;;;2058548;28;20035;-82
2022/08/24 00:35:59;;;;;;;2.15;1.10;;;;;;;;;;2057832;28;20122;-81
2022/08/24 00:37:18;;;;;;;1.33;1.27;;;;;;;;;;2057470;28;20102;-82
2022/08/24 00:38:41;;;;;;;1.30;1.20;;;;;;;;;;2068086;28;20057;-81
2022/08/24 00:40:00;;;;;;;1.33;1.10;;;;;;;;;;2062969;28;20085;-81
2022/08/24 00:41:19;;;;;;;1.33;1.15;;;;;;;;;;2063820;28;20034;-81
2022/08/24 00:42:38;;;;;;;2.33;1.20;;;;;;;;;;2061382;28;20027;-82
2022/08/24 00:43:58;;;;;;;1.40;1.30;;;;;;;;;;2064349;28;20480;-82
2022/08/24 00:45:18;;;;;;;1.52;1.13;;;;;;;;;;2065746;28;20587;-81
2022/08/24 00:46:41;;;;;;;1.45;1.35;;;;;;;;;;2061825;28;20043;-81
2022/08/24 00:48:01;;;;;;;1.42;1.30;;;;;;;;;;2054320;28;20030;-79
2022/08/24 00:49:24;;;;;;;2.42;1.20;;;;;;;;;;2062410;28;20062;-80
2022/08/24 00:50:49;;;;;;;3.35;1.45;;;;;;;;;;2066927;28;20495;-81
2022/08/24 00:52:11;;;;;;;4.10;1.48;;;;;;;;;;2064229;28;20034;-81
2022/08/24 00:53:32;;;;;;;2.15;1.42;;;;;;;;;;2068813;28;20410;-81
2022/08/24 00:54:56;;;;;;;2.15;1.30;;;;;;;;;;2057624;28;20506;-81
2022/08/24 00:56:21;;;;;;;1.58;1.48;;;;;;;;;;2056584;28;20038;-79
2022/08/24 00:57:45;;;;;;;3.20;1.30;;;;;;;;;;2055488;28;20027;-81
2022/08/24 00:59:11;;;;;;;1.85;1.13;;;;;;;;;;2064186;28;20507;-81
2022/08/24 01:00:31;;;;;;;1.85;1.20;;;;;;;;;;2066353;28;20045;-81
2022/08/24 01:01:55;;;;;;;1.30;1.20;;;;;;;;;;2060467;28;20034;-81
2022/08/24 01:03:14;;;;;;;1.35;1.10;;;;;;;;;;2058860;28;20113;-81
2022/08/24 01:04:37;;;;;;;1.63;1.52;;;;;;;;;;2057449;28;20031;-81
2022/08/24 01:05:56;;;;;;;1.60;1.50;;;;;;;;;;2063599;28;20105;-81
2022/08/24 01:07:15;;;;;;;1.55;1.27;;;;;;;;;;2068667;28;20022;-81
2022/08/24 01:08:35;;;;;;;1.35;1.25;;;;;;;;;;2061311;28;20023;-81
2022/08/24 01:09:56;;;;;;;1.90;1.35;;;;;;;;;;2062924;28;20022;-81
2022/08/24 01:11:20;;;;;;;1.33;1.23;;;;;;;;;;2059298;28;20030;-81
2022/08/24 01:12:41;;;;;;;2.50;1.48;;;;;;;;;;2064612;28;20018;-82
2022/08/24 01:14:01;;;;;;;1.85;1.15;;;;;;;;;;2060387;28;20026;-81
2022/08/24 01:15:21;;;;;;;2.40;1.33;;;;;;;;;;2060148;28;20449;-81
2022/08/24 01:19:58;;;;;;;1.30;1.20;;;;;;;;;;2066614;28;20515;-81
2022/08/24 01:21:17;;;;;;;3.15;1.40;;;;;;;;;;2060450;28;20030;-82
2022/08/24 01:22:42;;;;;;;1.55;1.45;;;;;;;;;;2056171;28;20026;-82
2022/08/24 01:24:03;;;;;;;5.03;1.60;;;;;;;;;;2052968;28;20034;-81
2022/08/24 01:25:24;;;;;;;3.08;1.50;;;;;;;;;;2062027;28;20026;-82
2022/08/24 01:26:47;;;;;;;2.58;1.30;;;;;;;;;;2058808;28;20027;-81
2022/08/24 01:28:06;;;;;;;;;;;;;;;;;;2054409;28;20038;-81
2022/08/24 01:29:26;;;;;;;3.92;1.33;;;;;;;;;;2059177;28;19910;-81
2022/08/24 01:30:45;;;;;;;3.40;1.45;;;;;;;;;;2055282;28;20035;-82
2022/08/24 01:32:04;;;;;;;1.40;1.30;;;;;;;;;;2057555;28;20034;-82
2022/08/24 01:33:25;;;;;;;3.65;1.58;;;;;;;;;;2064038;28;20038;-80
2022/08/24 01:34:44;;;;;;;3.92;1.52;;;;;;;;;;2065847;28;20503;-80
2022/08/24 01:36:17;;;;;;;2.30;1.40;;;;;;;;;;2063561;28;20038;-80
2022/08/24 01:37:36;;;;;;;2.38;1.45;;;;;;;;;;2067313;28;20423;-80
2022/08/24 01:38:56;;;;;;;3.95;1.38;;;;;;;;;;2065124;28;20400;-81
2022/08/24 01:40:15;;;;;;;1.20;1.05;;;;;;;;;;2069285;28;20029;-81
2022/08/24 01:41:35;;;;;;;1.55;1.20;;;;;;;;;;2067518;28;20026;-81
2022/08/24 01:42:54;;;;;;;3.15;1.33;;;;;;;;;;2063721;28;20061;-81
2022/08/24 01:44:13;;;;;;;1.52;1.15;;;;;;;;;;2056509;28;20051;-81
2022/08/24 01:45:32;;;;;;;2.38;1.25;;;;;;;;;;2064493;28;20030;-81
2022/08/24 01:46:53;;;;;;;2.45;1.23;;;;;;;;;;2067585;28;20030;-81
2022/08/24 01:48:14;;;;;;;1.15;1.00;;;;;;;;;;2060829;28;20038;-81
2022/08/24 01:49:34;;;;;;;1.23;1.17;;;;;;;;;;2064496;28;20061;-81
2022/08/24 01:50:55;;;;;;;1.27;1.17;;;;;;;;;;2065338;28;20073;-81
2022/08/24 01:52:19;;;;;;;1.38;1.27;;;;;;;;;;2059245;28;20519;-81
2022/08/24 01:53:38;;;;;;;2.22;1.30;;;;;;;;;;2060753;28;20027;-81
2022/08/24 01:54:57;;;;;;;1.60;1.25;;;;;;;;;;2063004;28;20038;-81
2022/08/24 01:56:17;;;;;;;2.55;1.25;;;;;;;;;;2067914;28;20030;-81
2022/08/24 01:57:38;;;;;;;2.58;1.17;;;;;;;;;;2062273;28;20054;-83
2022/08/24 01:58:58;;;;;;;3.58;1.52;;;;;;;;;;2056749;28;20026;-82
2022/08/24 02:00:17;;;;;;;3.17;1.30;;;;;;;;;;2065485;28;20029;-82
2022/08/24 02:01:38;;;;;;;1.55;1.10;;;;;;;;;;2065104;28;20038;-82
2022/08/24 02:02:57;;;;;;;3.05;1.10;;;;;;;;;;2057552;28;20035;-81
2022/08/24 02:04:17;;;;;;;1.45;1.10;;;;;;;;;;2055770;28;20043;-82
2022/08/24 02:05:36;;;;;;;2.88;1.30;;;;;;;;;;2061639;28;20029;-82
2022/08/24 02:06:55;;;;;;;2.70;1.48;;;;;;;;;;2065705;28;20022;-82
2022/08/24 02:08:14;;;;;;;2.50;1.38;;;;;;;;;;2059184;28;20060;-82
2022/08/24 02:09:32;;;;;;;2.97;1.30;;;;;;;;;;2056659;28;20022;-82
2022/08/24 02:10:51;;;;;;;1.75;1.38;;;;;;;;;;2064929;28;20034;-82
2022/08/24 02:12:10;;;;;;;3.92;1.40;;;;;;;;;;2068060;28;20038;-82
2022/08/24 02:13:30;;;;;;;1.92;1.50;;;;;;;;;;2068679;28;20038;-82
2022/08/24 02:14:49;;;;;;;1.40;1.20;;;;;;;;;;2068453;28;20042;-82
2022/08/24 02:16:08;;;;;;;2.53;1.10;;;;;;;;;;2060143;28;20023;-81
2022/08/24 02:17:27;;;;;;;1.77;1.30;;;;;;;;;;2066951;28;20026;-82
2022/08/24 02:18:46;;;;;;;5.88;1.23;;;;;;;;;;2063296;28;20034;-82
2022/08/24 02:20:06;;;;;;;2.45;1.50;;;;;;;;;;2065396;28;20153;-82
2022/08/24 02:21:25;;;;;;;1.52;1.40;;;;;;;;;;2059402;28;20055;-82
2022/08/24 02:22:44;;;;;;;1.63;1.48;;;;;;;;;;2064506;28;20479;-82
2022/08/24 02:24:03;;;;;;;1.60;1.35;;;;;;;;;;2061728;28;20499;-81
2022/08/24 02:25:23;;;;;;;1.48;1.30;;;;;;;;;;2066531;28;20042;-83
2022/08/24 02:26:42;;;;;;;2.42;1.40;;;;;;;;;;2066492;28;20121;-82
2022/08/24 02:28:01;;;;;;;2.42;1.25;;;;;;;;;;2067584;28;20030;-83
2022/08/24 02:29:21;;;;;;;1.95;1.45;;;;;;;;;;2068986;28;20022;-82
2022/08/24 02:30:40;;;;;;;1.58;1.33;;;;;;;;;;2057467;28;20062;-82
2022/08/24 02:31:59;;;;;;;4.53;1.73;;;;;;;;;;2064484;28;20034;-82
2022/08/24 02:33:18;;;;;;;1.40;1.30;;;;;;;;;;2062004;28;20132;-82
2022/08/24 02:34:37;;;;;;;4.32;1.73;;;;;;;;;;2060463;28;20113;-82
2022/08/24 02:35:55;;;;;;;1.75;1.55;;;;;;;;;;2064798;28;20034;-82
2022/08/24 02:37:14;;;;;;;4.43;1.30;;;;;;;;;;2063279;28;20035;-82
2022/08/24 02:38:34;;;;;;;4.40;1.75;;;;;;;;;;2057024;28;20062;-82
2022/08/24 02:39:52;;;;;;;3.13;1.40;;;;;;;;;;2059436;28;20022;-82
2022/08/24 02:41:11;;;;;;;1.40;1.30;;;;;;;;;;2060069;28;20039;-82
2022/08/24 02:42:30;;;;;;;2.28;1.55;;;;;;;;;;2059720;28;20066;-82
2022/08/24 02:43:49;;;;;;;1.55;1.30;;;;;;;;;;2067515;28;20022;-82
2022/08/24 02:45:09;;;;;;;2.03;1.30;;;;;;;;;;2063719;28;20030;-82
2022/08/24 02:46:28;;;;;;;2.58;1.70;;;;;;;;;;2055613;28;20030;-82
2022/08/24 02:47:48;;;;;;;2.55;1.60;;;;;;;;;;2068497;28;20527;-82
2022/08/24 02:49:07;;;;;;;1.92;1.17;;;;;;;;;;2065362;28;20479;-82
2022/08/24 02:50:26;;;;;;;5.82;1.40;;;;;;;;;;2062331;28;20039;-83
2022/08/24 02:51:46;;;;;;;3.53;1.40;;;;;;;;;;2056756;28;20448;-82
2022/08/24 02:53:05;;;;;;;1.30;1.20;;;;;;;;;;2058610;28;20030;-82
2022/08/24 02:54:24;;;;;;;2.20;1.20;;;;;;;;;;2067795;28;20038;-81
2022/08/24 02:55:43;;;;;;;1.50;1.20;;;;;;;;;;2064187;28;20039;-81
2022/08/24 02:57:02;;;;;;;3.03;1.48;;;;;;;;;;2058195;28;20030;-83
2022/08/24 02:58:22;;;;;;;4.40;1.40;;;;;;;;;;2065136;28;20025;-82
2022/08/24 02:59:41;;;;;;;2.08;1.48;;;;;;;;;;2060954;28;20052;-81
2022/08/24 03:00:59;;;;;;;1.65;1.25;;;;;;;;;;2064487;28;20034;-82
2022/08/24 03:02:19;;;;;;;2.28;1.20;;;;;;;;;;2059925;28;20551;-82
2022/08/24 03:03:38;;;;;;;2.00;1.38;;;;;;;;;;2059486;28;20491;-82
2022/08/24 03:04:56;;;;;;;2.35;1.15;;;;;;;;;;2066302;28;20034;-82
2022/08/24 03:06:16;;;;;;;1.77;1.33;;;;;;;;;;2066333;28;20427;-82
2022/08/24 03:07:35;;;;;;;2.00;1.50;;;;;;;;;;2059166;28;20042;-83
2022/08/24 03:08:55;;;;;;;1.77;1.35;;;;;;;;;;2054781;28;20030;-82
2022/08/24 03:10:14;;;;;;;2.90;1.48;;;;;;;;;;2065099;28;20411;-82
2022/08/24 03:11:33;;;;;;;2.67;1.30;;;;;;;;;;2062789;28;20530;-82
2022/08/24 03:12:53;;;;;;;2.25;1.30;;;;;;;;;;2064668;28;20072;-82
2022/08/24 03:14:12;;;;;;;2.08;1.40;;;;;;;;;;2061740;28;20042;-82
2022/08/24 03:15:31;;;;;;;4.50;1.50;;;;;;;;;;2056977;28;20504;-82
2022/08/24 03:16:50;;;;;;;1.45;1.25;;;;;;;;;;2064428;28;20026;-81
2022/08/24 03:18:09;;;;;;;3.97;1.27;;;;;;;;;;2065684;28;20438;-81
2022/08/24 03:19:29;;;;;;;4.63;1.50;;;;;;;;;;2059558;28;20058;-81
2022/08/24 03:20:48;;;;;;;2.75;1.33;;;;;;;;;;2063559;28;20019;-81
2022/08/24 03:22:07;;;;;;;4.43;1.52;;;;;;;;;;2060175;28;20023;-81
2022/08/24 03:23:26;;;;;;;1.45;1.35;;;;;;;;;;2058785;28;20038;-81
2022/08/24 03:24:45;;;;;;;3.20;1.30;;;;;;;;;;2066892;28;20023;-81
2022/08/24 03:26:05;;;;;;;2.35;1.20;;;;;;;;;;2070169;28;20291;-80
2022/08/24 03:27:25;;;;;;;2.28;1.30;;;;;;;;;;2068234;28;20030;-81
2022/08/24 03:28:44;;;;;;;2.70;1.27;;;;;;;;;;2060341;28;20026;-82
2022/08/24 03:30:04;;;;;;;1.40;1.30;;;;;;;;;;2059074;28;20492;-81
2022/08/24 03:31:23;;;;;;;2.00;1.05;;;;;;;;;;2056925;28;20058;-81
2022/08/24 03:32:43;;;;;;;3.28;1.58;;;;;;;;;;2064954;28;20079;-81
2022/08/24 03:34:04;;;;;;;1.38;1.23;;;;;;;;;;2069023;28;20026;-81
2022/08/24 03:35:24;;;;;;;1.50;1.40;;;;;;;;;;2061659;28;20058;-81
2022/08/24 03:36:46;;;;;;;4.47;1.48;;;;;;;;;;2059978;28;20034;-83
2022/08/24 03:38:05;;;;;;;1.63;1.50;;;;;;;;;;2056558;28;20030;-80
2022/08/24 03:39:24;;;;;;;1.88;1.20;;;;;;;;;;2060732;28;20030;-80
2022/08/24 03:40:43;;;;;;;1.30;1.20;;;;;;;;;;2062989;28;20031;-80
2022/08/24 03:42:03;;;;;;;3.42;1.73;;;;;;;;;;2061245;28;20018;-83
2022/08/24 03:45:03;;;;;;;2.47;1.40;;;;;;;;;;2068382;28;20319;-79
2022/08/24 03:46:24;;;;;;;3.88;1.63;;;;;;;;;;2065876;28;20031;-80
2022/08/24 03:47:44;;;;;;;3.15;1.90;;;;;;;;;;2058386;28;20030;-80
2022/08/24 03:49:05;;;;;;;2.67;1.50;;;;;;;;;;2054172;28;20039;-79
2022/08/24 03:50:24;;;;;;;2.13;1.50;;;;;;;;;;2064265;28;20030;-82
2022/08/24 03:51:43;;;;;;;3.05;1.63;;;;;;;;;;2059622;28;20031;-80
2022/08/24 03:53:02;;;;;;;2.03;1.90;;;;;;;;;;2056461;28;20113;-81
2022/08/24 03:54:21;;;;;;;2.35;1.90;;;;;;;;;;2063391;28;20027;-81
2022/08/24 03:55:39;;;;;;;2.03;1.50;;;;;;;;;;2062975;28;20042;-80
2022/08/24 03:56:58;;;;;;;2.72;1.80;;;;;;;;;;2068310;28;20036;-82
2022/08/24 03:58:17;;;;;;;2.53;1.70;;;;;;;;;;2060509;28;20038;-80
2022/08/24 03:59:38;;;;;;;6.05;2.03;;;;;;;;;;2065178;28;20030;-81
2022/08/24 04:00:57;;;;;;;3.10;1.77;;;;;;;;;;2066058;28;20026;-83
2022/08/24 04:02:17;;;;;;;3.80;2.35;;;;;;;;;;2068756;28;20022;-81
2022/08/24 04:03:39;;;;;;;2.78;1.40;;;;;;;;;;2067586;28;20503;-82
2022/08/24 04:04:58;;;;;;;2.95;1.50;;;;;;;;;;2069349;28;20034;-82
2022/08/24 04:06:18;;;;;;;3.65;1.90;;;;;;;;;;2060672;28;20039;-81
2022/08/24 04:07:37;;;;;;;3.20;1.42;;;;;;;;;;2063255;28;20042;-81
2022/08/24 04:08:56;;;;;;;4.35;1.48;;;;;;;;;;2065115;28;20574;-81
2022/08/24 04:10:15;;;;;;;2.15;2.03;;;;;;;;;;2061279;28;20038;-81
2022/08/24 04:11:33;;;;;;;2.10;1.65;;;;;;;;;;2065738;28;20026;-81
2022/08/24 04:12:53;;;;;;;1.98;1.80;;;;;;;;;;2061926;28;20050;-80
2022/08/24 04:14:14;;;;;;;1.90;1.80;;;;;;;;;;2057961;28;20030;-80
2022/08/24 04:15:37;;;;;;;2.03;1.70;;;;;;;;;;2059792;28;20026;-81
2022/08/24 04:16:57;;;;;;;3.83;1.92;;;;;;;;;;2060467;28;20532;-81
2022/08/24 04:18:15;;;;;;;2.92;2.00;;;;;;;;;;2061575;28;20058;-81
2022/08/24 04:19:34;;;;;;;1.50;1.35;;;;;;;;;;2064827;28;20041;-80
2022/08/24 04:20:53;;;;;;;1.70;1.52;;;;;;;;;;2059972;28;20551;-80
2022/08/24 04:22:12;;;;;;;1.77;1.67;;;;;;;;;;2060892;28;20030;-80
2022/08/24 04:23:32;;;;;;;4.50;1.67;;;;;;;;;;2067302;28;20113;-81
2022/08/24 04:24:51;;;;;;;3.88;1.83;;;;;;;;;;2063456;28;20050;-82
2022/08/24 04:26:11;;;;;;;2.00;1.90;;;;;;;;;;2062557;28;20581;-82
2022/08/24 04:27:29;;;;;;;2.25;1.50;;;;;;;;;;2058401;28;20120;-81
2022/08/24 04:28:49;;;;;;;3.28;2.28;;;;;;;;;;2055456;28;20054;-83
2022/08/24 04:30:08;;;;;;;3.67;1.90;;;;;;;;;;2057244;28;20027;-82
2022/08/24 04:31:29;;;;;;;4.28;2.15;;;;;;;;;;2063256;28;20033;-83
2022/08/24 04:32:49;;;;;;;3.08;1.55;;;;;;;;;;2063071;28;20014;-82
2022/08/24 04:34:08;;;;;;;3.08;1.85;;;;;;;;;;2064903;28;20030;-82
2022/08/24 04:35:28;;;;;;;3.08;1.90;;;;;;;;;;2060723;28;20034;-81
2022/08/24 04:36:46;;;;;;;3.70;1.83;;;;;;;;;;2062459;28;20298;-82
2022/08/24 04:38:06;;;;;;;5.10;2.13;;;;;;;;;;2058180;28;20034;-82
2022/08/24 04:39:25;;;;;;;5.22;1.85;;;;;;;;;;2055431;28;20038;-82
2022/08/24 04:40:45;;;;;;;2.30;1.77;;;;;;;;;;2056764;28;20443;-83
2022/08/24 04:42:05;;;;;;;2.47;1.60;;;;;;;;;;2065907;28;20026;-84
2022/08/24 04:43:25;;;;;;;1.55;1.45;;;;;;;;;;2063395;28;20026;-82
2022/08/24 04:44:44;;;;;;;3.42;1.92;;;;;;;;;;2059175;28;20030;-83
2022/08/24 04:46:06;;;;;;;2.00;1.80;;;;;;;;;;2057714;28;20062;-84
2022/08/24 04:47:25;;;;;;;2.72;2.20;;;;;;;;;;2061731;28;20053;-83
2022/08/24 04:48:47;;;;;;;3.30;1.92;;;;;;;;;;2066295;28;20062;-83
2022/08/24 04:50:06;;;;;;;8.57;2.08;;;;;;;;;;2056361;28;20328;-84
2022/08/24 04:51:26;;;;;;;3.08;1.95;;;;;;;;;;2063918;28;20104;-82
2022/08/24 04:52:44;;;;;;;1.75;1.38;;;;;;;;;;2061070;28;20106;-82
2022/08/24 04:54:04;;;;;;;4.90;1.60;;;;;;;;;;2058311;28;20081;-85
2022/08/24 04:55:22;;;;;;;4.10;1.48;;;;;;;;;;2062162;28;20030;-82
2022/08/24 04:56:41;;;;;;;5.45;1.80;;;;;;;;;;2063581;28;20026;-83
2022/08/24 04:58:00;;;;;;;1.88;1.63;;;;;;;;;;2059434;28;20027;-82
2022/08/24 04:59:19;;;;;;;2.58;1.10;;;;;;;;;;2063971;28;20038;-85
2022/08/24 05:00:38;;;;;;;3.80;1.45;;;;;;;;;;2058025;28;20031;-85
2022/08/24 05:01:57;;;;;;;2.28;1.23;;;;;;;;;;2057745;28;20031;-85
2022/08/24 05:03:16;;;;;;;4.20;1.27;;;;;;;;;;2058641;28;20030;-85
2022/08/24 05:04:36;;;;;;;2.10;1.00;;;;;;;;;;2055994;28;20027;-86
2022/08/24 05:05:55;;;;;;;5.85;1.40;;;;;;;;;;2057820;28;20062;-82
2022/08/24 05:07:14;;;;;;;4.07;1.33;;;;;;;;;;2058308;28;20042;-85
2022/08/24 05:08:33;;;;;;;5.40;1.42;;;;;;;;;;2058295;28;20027;-84
2022/08/24 05:09:53;;;;;;;3.75;1.40;;;;;;;;;;2065364;28;20458;-83
2022/08/24 05:11:12;;;;;;;3.90;1.58;;;;;;;;;;2063947;28;20031;-85
2022/08/24 05:12:31;;;;;;;3.05;1.30;;;;;;;;;;2067459;28;20030;-84
2022/08/24 05:13:51;;;;;;;4.82;1.50;;;;;;;;;;2061995;28;20027;-83
2022/08/24 05:15:11;;;;;;;3.70;1.35;;;;;;;;;;2057984;28;20042;-82
2022/08/24 05:16:32;;;;;;;4.30;1.40;;;;;;;;;;2058382;28;20027;-85
2022/08/24 05:17:52;;;;;;;1.63;1.52;;;;;;;;;;2067206;28;20049;-84
2022/08/24 05:19:11;;;;;;;12.20;7.13;;;;;;;;;;2059030;28;21105;-85
2022/08/24 05:20:30;;;;;;;17.08;8.10;;;;;;;;;;2057268;28;20512;-83
2022/08/24 05:21:49;;;;;;;4.60;1.90;;;;;;;;;;2058044;28;20031;-83
2022/08/24 05:23:08;;;;;;;3.92;3.28;;;;;;;;;;2059067;28;20050;-82
2022/08/24 05:24:27;;;;;;;2.55;1.25;;;;;;;;;;2066565;28;20030;-81
2022/08/24 05:25:46;;;;;;;1.55;1.15;;;;;;;;;;2060615;28;20030;-79
2022/08/24 05:27:05;;;;;;;2.67;2.05;;;;;;;;;;2058365;28;20066;-81
2022/08/24 05:28:24;;;;;;;1.30;1.20;;;;;;;;;;2064683;28;20502;-79
2022/08/24 05:29:44;;;;;;;2.72;2.30;;;;;;;;;;2059995;28;20051;-82
2022/08/24 05:31:07;;;;;;;2.10;2.00;;;;;;;;;;2060360;28;20046;-80
2022/08/24 05:32:26;;;;;;;2.55;1.10;;;;;;;;;;2064868;28;20038;-81
2022/08/24 05:33:46;;;;;;;2.08;1.13;;;;;;;;;;2068696;28;20026;-81
2022/08/24 05:35:06;;;;;;;3.63;0.90;;;;;;;;;;2060236;28;20047;-81
2022/08/24 05:36:26;;;;;;;2.70;1.20;;;;;;;;;;2061148;28;20054;-81
2022/08/24 05:37:45;;;;;;;3.10;1.50;;;;;;;;;;2060579;28;20027;-81
2022/08/24 05:41:26;;;;;;;2.42;0.90;;;;;;;;;;2058356;28;20031;-81
2022/08/24 05:45:04;;;;;;;3.00;0.75;;;;;;;;;;2054921;28;20036;-83
2022/08/24 05:46:23;;;;;;;3.08;0.60;;;;;;;;;;2052648;28;20042;-82
2022/08/24 05:47:43;;;;;;;0.70;0.60;;;;;;;;;;2060453;28;20360;-80
2022/08/24 05:49:01;;;;;;;2.38;0.90;;;;;;;;;;2060328;28;20035;-80
2022/08/24 05:50:20;;;;;;;1.15;0.80;;;;;;;;;;2059704;28;20559;-79
2022/08/24 05:51:41;;;;;;;1.40;0.90;;;;;;;;;;2059871;28;20062;-82
2022/08/24 05:53:00;;;;;;;0.63;0.60;;;;;;;;;;2058819;28;20026;-82
2022/08/24 05:54:19;;;;;;;5.25;1.90;;;;;;;;;;2058422;28;20488;-82
2022/08/24 05:55:38;;;;;;;1.27;1.17;;;;;;;;;;2061035;28;20039;-80
2022/08/24 05:57:03;;;;;;;3.05;1.67;;;;;;;;;;2059682;28;20026;-79
2022/08/24 05:58:22;;;;;;;1.95;1.02;;;;;;;;;;2058572;28;20046;-80
2022/08/24 05:59:41;;;;;;;2.05;1.40;;;;;;;;;;2055950;28;20023;-80
2022/08/24 06:01:06;;;;;;;2.30;1.33;;;;;;;;;;2059025;28;20030;-80
2022/08/24 06:02:25;;;;;;;2.88;1.75;;;;;;;;;;2060304;28;20030;-80
2022/08/24 06:03:44;;;;;;;2.25;1.25;;;;;;;;;;2060212;28;20512;-80
2022/08/24 06:05:03;;;;;;;1.50;1.08;;;;;;;;;;2057918;28;20030;-80
2022/08/24 06:06:22;;;;;;;3.45;1.20;;;;;;;;;;2061331;28;20050;-80
2022/08/24 06:07:42;;;;;;;0.88;0.63;;;;;;;;;;2058781;28;20106;-80
2022/08/24 06:09:01;;;;;;;1.42;0.57;;;;;;;;;;2059033;28;20018;-80
2022/08/24 06:10:20;;;;;;;3.38;0.90;;;;;;;;;;2057420;28;20488;-80
2022/08/24 06:11:40;;;;;;;1.67;0.80;;;;;;;;;;2060056;28;20026;-80
2022/08/24 06:12:58;;;;;;;2.30;0.80;;;;;;;;;;2056170;28;20031;-81
2022/08/24 06:14:18;;;;;;;1.60;0.80;;;;;;;;;;2057658;28;20483;-81
2022/08/24 06:15:37;;;;;;;2.08;1.00;;;;;;;;;;2055710;28;20035;-80
2022/08/24 06:16:56;;;;;;;0.80;0.80;;;;;;;;;;2065556;28;20030;-80
2022/08/24 06:18:15;;;;;;;1.40;0.90;;;;;;;;;;2058113;28;20022;-81
2022/08/24 06:19:36;;;;;;;1.45;0.60;;;;;;;;;;2059871;28;20069;-81
2022/08/24 06:20:55;;;;;;;2.78;1.00;;;;;;;;;;2055434;28;20031;-80
2022/08/24 06:22:14;;;;;;;1.95;0.90;;;;;;;;;;2054903;28;20031;-81
2022/08/24 06:23:34;;;;;;;0.82;0.63;;;;;;;;;;2057841;28;20575;-80
2022/08/24 06:28:09;;;;;;;2.72;1.33;;;;;;;;;;2058573;28;20101;-79
2022/08/24 06:29:28;;;;;;;1.23;1.13;;;;;;;;;;2058461;28;20113;-80
2022/08/24 06:30:47;;;;;;;0.93;0.80;;;;;;;;;;2056845;28;20535;-80
2022/08/24 06:32:06;;;;;;;1.17;1.05;;;;;;;;;;2059953;28;20039;-80
2022/08/24 06:33:25;;;;;;;3.22;1.02;;;;;;;;;;2059906;28;20030;-79
2022/08/24 06:34:44;;;;;;;1.90;0.90;;;;;;;;;;2054275;28;20035;-79
2022/08/24 06:36:04;;;;;;;2.35;1.35;;;;;;;;;;2058703;28;20031;-80
2022/08/24 06:37:25;;;;;;;1.55;1.00;;;;;;;;;;2056906;28;20042;-81
2022/08/24 06:38:44;;;;;;;3.22;0.88;;;;;;;;;;2051854;28;20027;-80
2022/08/24 06:40:03;;;;;;;4.25;1.00;;;;;;;;;;2054388;28;20472;-78
2022/08/24 06:41:22;;;;;;;0.90;0.90;;;;;;;;;;2057840;28;21002;-78
2022/08/24 06:42:42;;;;;;;2.20;0.77;;;;;;;;;;2063866;28;20022;-78
2022/08/24 06:44:02;;;;;;;2.25;0.63;;;;;;;;;;2065690;28;20039;-78
2022/08/24 06:45:21;;;;;;;1.35;0.73;;;;;;;;;;2057013;28;20035;-78
2022/08/24 06:46:40;;;;;;;2.38;0.60;;;;;;;;;;2058440;28;20061;-79
2022/08/24 06:47:59;;;;;;;1.05;0.40;;;;;;;;;;2057977;28;20027;-78
2022/08/24 06:49:18;;;;;;;6.90;1.13;;;;;;;;;;2055780;28;20027;-79
2022/08/24 06:50:38;;;;;;;0.82;0.55;;;;;;;;;;2059119;28;20388;-79
2022/08/24 06:51:57;;;;;;;1.15;1.05;;;;;;;;;;2058357;28;20073;-77
2022/08/24 06:53:16;;;;;;;2.25;1.58;;;;;;;;;;2059993;28;20043;-79
2022/08/24 06:54:36;;;;;;;3.00;1.05;;;;;;;;;;2054061;28;20034;-80
2022/08/24 06:55:56;;;;;;;1.48;0.80;;;;;;;;;;2052637;28;20058;-79
2022/08/24 06:57:15;;;;;;;1.23;0.98;;;;;;;;;;2058352;28;20023;-80
2022/08/24 06:58:34;;;;;;;2.22;0.47;;;;;;;;;;2060988;28;20019;-80
2022/08/24 06:59:53;;;;;;;3.03;0.60;;;;;;;;;;2060495;28;20449;-80
2022/08/24 07:01:14;;;;;;;1.42;0.57;;;;;;;;;;2057478;28;20046;-80
2022/08/24 07:02:33;;;;;;;1.30;0.43;;;;;;;;;;2059884;28;20413;-80
2022/08/24 07:03:52;;;;;;;0.77;0.50;;;;;;;;;;2056555;28;20031;-79
2022/08/24 07:05:11;;;;;;;1.88;0.40;;;;;;;;;;2055890;28;20022;-79
2022/08/24 07:06:30;;;;;;;2.38;0.80;;;;;;;;;;2052596;28;20109;-79
2022/08/24 07:07:49;;;;;;;5.18;2.88;;;;;;;;;;2058713;28;20027;-80
2022/08/24 07:09:09;;;;;;;1.90;0.68;;;;;;;;;;2056346;28;20416;-79
2022/08/24 07:10:29;;;;;;;1.42;1.00;;;;;;;;;;2059849;28;20472;-80
2022/08/24 07:11:48;;;;;;;1.45;0.60;;;;;;;;;;2056464;28;20495;-79
2022/08/24 07:13:09;;;;;;;2.60;0.50;;;;;;;;;;2061292;28;20030;-80
2022/08/24 07:14:28;;;;;;;3.85;0.80;;;;;;;;;;2056082;28;20043;-79
2022/08/24 07:15:49;;;;;;;2.42;0.90;;;;;;;;;;2059647;28;20038;-79
2022/08/24 07:17:08;;;;;;;1.30;0.57;;;;;;;;;;2066613;28;20034;-80
2022/08/24 07:18:27;;;;;;;1.92;0.80;;;;;;;;;;2058448;28;20027;-80
2022/08/24 07:19:46;;;;;;;1.48;0.85;;;;;;;;;;2054910;28;20046;-80
2022/08/24 07:21:05;;;;;;;1.20;0.80;;;;;;;;;;2058493;28;20038;-80
2022/08/24 07:22:24;;;;;;;2.78;0.80;;;;;;;;;;2059254;28;20074;-80
2022/08/24 07:23:45;;;;;;;1.75;0.57;;;;;;;;;;2053334;28;20019;-80
2022/08/24 07:25:04;;;;;;;1.80;0.90;;;;;;;;;;2056818;28;20027;-79
2022/08/24 07:26:25;;;;;;;0.50;0.50;;;;;;;;;;2057166;28;20034;-81
2022/08/24 07:27:45;;;;;;;1.42;0.60;;;;;;;;;;2056642;28;20117;-81
2022/08/24 07:29:07;;;;;;;1.00;0.47;;;;;;;;;;2055759;28;20653;-81
2022/08/24 07:30:27;;;;;;;1.95;0.50;;;;;;;;;;2054114;28;20071;-80
2022/08/24 07:31:47;;;;;;;1.00;0.50;;;;;;;;;;2054661;28;20031;-80
2022/08/24 07:33:07;;;;;;;2.35;0.60;;;;;;;;;;2059009;28;20102;-80
2022/08/24 07:34:26;;;;;;;3.47;0.80;;;;;;;;;;2057103;28;20027;-80
2022/08/24 07:35:44;;;;;;;2.05;0.60;;;;;;;;;;2058843;28;20065;-81
2022/08/24 07:37:04;;;;;;;0.73;0.60;;;;;;;;;;2057704;28;20023;-81
2022/08/24 07:38:23;;;;;;;1.67;0.60;;;;;;;;;;2056722;28;20492;-80
2022/08/24 07:39:42;;;;;;;3.80;0.80;;;;;;;;;;2056778;28;20035;-80
2022/08/24 07:41:01;;;;;;;4.90;0.70;;;;;;;;;;2059252;28;20030;-81
2022/08/24 07:42:20;;;;;;;1.13;0.60;;;;;;;;;;2054472;28;20423;-80
2022/08/24 07:43:40;;;;;;;0.98;0.70;;;;;;;;;;2062768;28;20029;-81
2022/08/24 07:44:59;;;;;;;0.95;0.40;;;;;;;;;;2058991;28;20058;-80
2022/08/24 07:46:18;;;;;;;1.25;0.45;;;;;;;;;;2056718;28;20026;-80
2022/08/24 07:47:37;;;;;;;1.83;0.90;;;;;;;;;;2058571;28;20038;-80
2022/08/24 07:48:56;;;;;;;2.33;0.57;;;;;;;;;;2058093;28;20054;-80
2022/08/24 07:50:16;;;;;;;1.33;0.63;;;;;;;;;;2058682;28;20480;-82
2022/08/24 07:51:35;;;;;;;2.50;0.50;;;;;;;;;;2058231;28;20026;-81
2022/08/24 07:52:54;;;;;;;1.92;0.70;;;;;;;;;;2054359;28;20039;-81
2022/08/24 07:54:13;;;;;;;2.17;0.60;;;;;;;;;;2053877;28;20488;-83
2022/08/24 07:55:33;;;;;;;0.50;0.50;;;;;;;;;;2055088;28;20500;-81
2022/08/24 07:56:52;;;;;;;1.58;0.50;;;;;;;;;;2055160;28;20042;-82
2022/08/24 07:58:11;;;;;;;1.50;0.65;;;;;;;;;;2052477;28;20034;-83
2022/08/24 07:59:31;;;;;;;12.82;0.88;;;;;;;;;;2058856;28;20105;-81
2022/08/24 08:00:51;;;;;;;0.73;0.55;;;;;;;;;;2055966;28;20022;-81
2022/08/24 08:02:10;;;;;;;1.77;0.50;;;;;;;;;;2056405;28;20472;-81
2022/08/24 08:03:32;;;;;;;5.95;0.50;;;;;;;;;;2055863;28;20061;-81
2022/08/24 08:04:53;;;;;;;0.57;0.50;;;;;;;;;;2056393;28;20019;-80
2022/08/24 08:06:12;;;;;;;1.08;0.52;;;;;;;;;;2062928;28;20527;-81
2022/08/24 08:07:31;;;;;;;2.83;0.50;;;;;;;;;;2063106;28;20031;-82
2022/08/24 08:08:50;;;;;;;1.17;0.80;;;;;;;;;;2058914;28;20042;-81
2022/08/24 08:10:10;;;;;;;4.28;0.90;;;;;;;;;;2057299;28;20173;-81